Terminal Aerodrome Forecast
Issued by NWS Pocatello, ID

Home | Current Version | Previous Version | Text Only | Print | Product List | Glossary On
Versions: 1 2 3 4 5 6 7 8 9 10 11 12 13 14 15 16 17 18 19 20 21 22 23 24 25 26
552
FTUS45 KPIH 242217 CCA
TAFIDA
TAF COR
KIDA 242217Z 2422/2518 21015G25KT 4SM -SN BR SCT015 OVC025
      TEMPO 2422/2502 2SM -SN OVC015
     FM250300 22010KT P6SM VCSH BKN015 OVC060
     FM250600 18010KT P6SM SCT015 SCT200
     FM251300 23015KT P6SM VCSH SCT008 BKN080=

USA.gov is the U.S. government's official web portal to all federal, state and local government web resources and services.